sensor_id;sensor_type;location;lat;lon;timestamp;P1;durP1;ratioP1;P2;durP2;ratioP2
72771;SDS011;60894;42.544;1.516;2022-10-22T00:01:52;2.53;;;0.95;;
72771;SDS011;60894;42.544;1.516;2022-10-22T00:04:19;3.80;;;0.88;;
72771;SDS011;60894;42.544;1.516;2022-10-22T00:06:46;6.13;;;1.58;;
72771;SDS011;60894;42.544;1.516;2022-10-22T00:09:15;8.25;;;2.08;;
72771;SDS011;60894;42.544;1.516;2022-10-22T00:11:42;2.90;;;0.90;;
72771;SDS011;60894;42.544;1.516;2022-10-22T00:14:09;1.52;;;0.60;;
72771;SDS011;60894;42.544;1.516;2022-10-22T00:16:36;2.22;;;0.90;;
72771;SDS011;60894;42.544;1.516;2022-10-22T00:19:03;3.28;;;0.85;;
72771;SDS011;60894;42.544;1.516;2022-10-22T00:21:30;3.28;;;0.70;;
72771;SDS011;60894;42.544;1.516;2022-10-22T00:23:57;1.93;;;0.60;;
72771;SDS011;60894;42.544;1.516;2022-10-22T00:26:26;2.08;;;0.88;;
72771;SDS011;60894;42.544;1.516;2022-10-22T00:28:53;2.85;;;0.93;;
72771;SDS011;60894;42.544;1.516;2022-10-22T00:31:20;3.33;;;0.98;;
72771;SDS011;60894;42.544;1.516;2022-10-22T00:33:47;2.63;;;0.90;;
72771;SDS011;60894;42.544;1.516;2022-10-22T00:36:14;3.70;;;1.00;;
72771;SDS011;60894;42.544;1.516;2022-10-22T00:38:41;3.47;;;1.00;;
72771;SDS011;60894;42.544;1.516;2022-10-22T00:41:08;6.30;;;2.05;;
72771;SDS011;60894;42.544;1.516;2022-10-22T00:46:23;4.15;;;0.90;;
72771;SDS011;60894;42.544;1.516;2022-10-22T00:48:50;2.10;;;0.90;;
72771;SDS011;60894;42.544;1.516;2022-10-22T00:51:18;1.92;;;0.60;;
72771;SDS011;60894;42.544;1.516;2022-10-22T00:53:48;2.80;;;0.90;;
72771;SDS011;60894;42.544;1.516;2022-10-22T00:56:17;2.47;;;0.80;;
72771;SDS011;60894;42.544;1.516;2022-10-22T00:58:46;2.83;;;0.80;;
72771;SDS011;60894;42.544;1.516;2022-10-22T01:01:20;3.07;;;0.70;;
72771;SDS011;60894;42.544;1.516;2022-10-22T01:03:51;2.35;;;0.80;;
72771;SDS011;60894;42.544;1.516;2022-10-22T01:06:19;3.72;;;1.17;;
72771;SDS011;60894;42.544;1.516;2022-10-22T01:08:51;3.70;;;0.88;;
72771;SDS011;60894;42.544;1.516;2022-10-22T01:11:28;4.50;;;0.98;;
72771;SDS011;60894;42.544;1.516;2022-10-22T01:14:03;2.67;;;0.70;;
72771;SDS011;60894;42.544;1.516;2022-10-22T01:16:40;1.42;;;0.60;;
72771;SDS011;60894;42.544;1.516;2022-10-22T01:19:24;3.13;;;0.90;;
72771;SDS011;60894;42.544;1.516;2022-10-22T01:22:03;2.25;;;0.80;;
72771;SDS011;60894;42.544;1.516;2022-10-22T01:24:37;4.88;;;1.05;;
72771;SDS011;60894;42.544;1.516;2022-10-22T01:27:23;1.87;;;0.97;;
72771;SDS011;60894;42.544;1.516;2022-10-22T01:29:58;3.45;;;0.80;;
72771;SDS011;60894;42.544;1.516;2022-10-22T01:32:28;1.38;;;0.80;;
72771;SDS011;60894;42.544;1.516;2022-10-22T01:34:59;2.88;;;0.85;;
72771;SDS011;60894;42.544;1.516;2022-10-22T01:37:29;3.58;;;0.80;;
72771;SDS011;60894;42.544;1.516;2022-10-22T01:40:00;2.60;;;0.70;;
72771;SDS011;60894;42.544;1.516;2022-10-22T01:42:27;4.20;;;1.08;;
72771;SDS011;60894;42.544;1.516;2022-10-22T01:44:54;4.18;;;1.00;;
72771;SDS011;60894;42.544;1.516;2022-10-22T01:47:25;2.60;;;0.80;;
72771;SDS011;60894;42.544;1.516;2022-10-22T01:50:12;2.45;;;0.90;;
72771;SDS011;60894;42.544;1.516;2022-10-22T01:56:00;2.08;;;1.00;;
72771;SDS011;60894;42.544;1.516;2022-10-22T01:58:39;4.05;;;0.85;;
72771;SDS011;60894;42.544;1.516;2022-10-22T02:01:13;4.80;;;1.50;;
72771;SDS011;60894;42.544;1.516;2022-10-22T02:03:46;3.30;;;1.00;;
72771;SDS011;60894;42.544;1.516;2022-10-22T02:06:18;2.77;;;1.10;;
72771;SDS011;60894;42.544;1.516;2022-10-22T02:08:47;2.88;;;0.85;;
72771;SDS011;60894;42.544;1.516;2022-10-22T02:11:16;4.25;;;1.08;;
72771;SDS011;60894;42.544;1.516;2022-10-22T02:13:43;2.65;;;0.90;;
72771;SDS011;60894;42.544;1.516;2022-10-22T02:16:12;3.83;;;0.93;;
72771;SDS011;60894;42.544;1.516;2022-10-22T02:18:45;2.93;;;1.13;;
72771;SDS011;60894;42.544;1.516;2022-10-22T02:21:15;3.17;;;0.80;;
72771;SDS011;60894;42.544;1.516;2022-10-22T02:23:42;2.15;;;0.80;;
72771;SDS011;60894;42.544;1.516;2022-10-22T02:26:13;2.38;;;1.02;;
72771;SDS011;60894;42.544;1.516;2022-10-22T02:28:47;4.18;;;0.90;;
72771;SDS011;60894;42.544;1.516;2022-10-22T02:31:19;5.40;;;0.80;;
72771;SDS011;60894;42.544;1.516;2022-10-22T02:33:51;3.05;;;1.00;;
72771;SDS011;60894;42.544;1.516;2022-10-22T02:36:22;2.13;;;0.90;;
72771;SDS011;60894;42.544;1.516;2022-10-22T02:38:50;3.70;;;1.40;;
72771;SDS011;60894;42.544;1.516;2022-10-22T02:41:18;2.55;;;0.82;;
72771;SDS011;60894;42.544;1.516;2022-10-22T02:43:47;4.83;;;1.40;;
72771;SDS011;60894;42.544;1.516;2022-10-22T02:46:16;3.53;;;0.90;;
72771;SDS011;60894;42.544;1.516;2022-10-22T02:48:43;2.55;;;1.00;;
72771;SDS011;60894;42.544;1.516;2022-10-22T02:51:11;3.83;;;0.88;;
72771;SDS011;60894;42.544;1.516;2022-10-22T02:53:38;3.00;;;0.75;;
72771;SDS011;60894;42.544;1.516;2022-10-22T02:56:05;5.17;;;1.20;;
72771;SDS011;60894;42.544;1.516;2022-10-22T02:58:32;3.03;;;0.90;;
72771;SDS011;60894;42.544;1.516;2022-10-22T03:00:59;5.78;;;0.93;;
72771;SDS011;60894;42.544;1.516;2022-10-22T03:03:26;2.83;;;0.80;;
72771;SDS011;60894;42.544;1.516;2022-10-22T03:05:53;2.20;;;0.80;;
72771;SDS011;60894;42.544;1.516;2022-10-22T03:08:21;3.37;;;0.97;;
72771;SDS011;60894;42.544;1.516;2022-10-22T03:10:48;2.58;;;0.90;;
72771;SDS011;60894;42.544;1.516;2022-10-22T03:13:15;4.10;;;0.90;;
72771;SDS011;60894;42.544;1.516;2022-10-22T03:15:42;3.00;;;0.70;;
72771;SDS011;60894;42.544;1.516;2022-10-22T03:18:09;3.00;;;0.90;;
72771;SDS011;60894;42.544;1.516;2022-10-22T03:20:36;2.40;;;0.87;;
72771;SDS011;60894;42.544;1.516;2022-10-22T03:23:03;3.63;;;0.80;;
72771;SDS011;60894;42.544;1.516;2022-10-22T03:25:31;1.85;;;0.65;;
72771;SDS011;60894;42.544;1.516;2022-10-22T03:28:00;2.53;;;0.80;;
72771;SDS011;60894;42.544;1.516;2022-10-22T03:30:29;3.08;;;0.90;;
72771;SDS011;60894;42.544;1.516;2022-10-22T03:32:56;2.83;;;0.83;;
72771;SDS011;60894;42.544;1.516;2022-10-22T03:35:23;1.00;;;0.60;;
72771;SDS011;60894;42.544;1.516;2022-10-22T03:37:50;3.28;;;0.90;;
72771;SDS011;60894;42.544;1.516;2022-10-22T03:40:17;1.92;;;0.80;;
72771;SDS011;60894;42.544;1.516;2022-10-22T03:42:47;2.15;;;0.68;;
72771;SDS011;60894;42.544;1.516;2022-10-22T03:45:13;2.47;;;0.80;;
72771;SDS011;60894;42.544;1.516;2022-10-22T03:47:40;2.70;;;0.93;;
72771;SDS011;60894;42.544;1.516;2022-10-22T03:50:08;3.70;;;0.98;;
72771;SDS011;60894;42.544;1.516;2022-10-22T03:52:35;2.97;;;0.90;;
72771;SDS011;60894;42.544;1.516;2022-10-22T03:55:04;2.67;;;0.90;;
72771;SDS011;60894;42.544;1.516;2022-10-22T03:57:32;2.47;;;0.70;;
72771;SDS011;60894;42.544;1.516;2022-10-22T04:00:02;2.75;;;1.00;;
72771;SDS011;60894;42.544;1.516;2022-10-22T04:02:30;3.53;;;0.95;;
72771;SDS011;60894;42.544;1.516;2022-10-22T04:04:57;1.63;;;0.70;;
72771;SDS011;60894;42.544;1.516;2022-10-22T04:07:24;2.38;;;0.95;;
72771;SDS011;60894;42.544;1.516;2022-10-22T04:09:51;6.80;;;0.90;;
72771;SDS011;60894;42.544;1.516;2022-10-22T04:12:18;4.07;;;1.00;;
72771;SDS011;60894;42.544;1.516;2022-10-22T04:14:45;3.00;;;0.90;;
72771;SDS011;60894;42.544;1.516;2022-10-22T04:17:13;3.88;;;1.20;;
72771;SDS011;60894;42.544;1.516;2022-10-22T04:19:40;2.97;;;0.90;;
72771;SDS011;60894;42.544;1.516;2022-10-22T04:22:07;3.30;;;0.80;;
72771;SDS011;60894;42.544;1.516;2022-10-22T04:24:34;2.38;;;0.85;;
72771;SDS011;60894;42.544;1.516;2022-10-22T04:27:01;3.63;;;1.10;;
72771;SDS011;60894;42.544;1.516;2022-10-22T04:29:28;2.67;;;1.13;;
72771;SDS011;60894;42.544;1.516;2022-10-22T04:31:56;5.57;;;0.80;;
72771;SDS011;60894;42.544;1.516;2022-10-22T04:34:26;1.47;;;0.60;;
72771;SDS011;60894;42.544;1.516;2022-10-22T04:36:54;3.35;;;0.80;;
72771;SDS011;60894;42.544;1.516;2022-10-22T04:39:21;3.72;;;0.80;;
72771;SDS011;60894;42.544;1.516;2022-10-22T04:41:47;1.73;;;0.80;;
72771;SDS011;60894;42.544;1.516;2022-10-22T04:44:14;3.50;;;0.90;;
72771;SDS011;60894;42.544;1.516;2022-10-22T04:46:44;3.23;;;0.80;;
72771;SDS011;60894;42.544;1.516;2022-10-22T04:49:11;2.05;;;0.70;;
72771;SDS011;60894;42.544;1.516;2022-10-22T04:51:39;4.90;;;0.93;;
72771;SDS011;60894;42.544;1.516;2022-10-22T04:54:06;2.83;;;0.80;;
72771;SDS011;60894;42.544;1.516;2022-10-22T04:56:33;1.67;;;0.80;;
72771;SDS011;60894;42.544;1.516;2022-10-22T04:59:01;2.50;;;1.00;;
72771;SDS011;60894;42.544;1.516;2022-10-22T05:01:30;1.95;;;0.90;;
72771;SDS011;60894;42.544;1.516;2022-10-22T05:03:58;2.10;;;0.80;;
72771;SDS011;60894;42.544;1.516;2022-10-22T05:06:26;2.72;;;0.95;;
72771;SDS011;60894;42.544;1.516;2022-10-22T05:08:55;3.70;;;1.00;;
72771;SDS011;60894;42.544;1.516;2022-10-22T05:11:24;2.70;;;0.93;;
72771;SDS011;60894;42.544;1.516;2022-10-22T05:13:53;2.70;;;0.95;;
72771;SDS011;60894;42.544;1.516;2022-10-22T05:16:21;3.13;;;1.20;;
72771;SDS011;60894;42.544;1.516;2022-10-22T05:18:48;2.65;;;0.90;;
72771;SDS011;60894;42.544;1.516;2022-10-22T05:21:16;3.15;;;0.80;;
72771;SDS011;60894;42.544;1.516;2022-10-22T05:23:44;2.00;;;0.80;;
72771;SDS011;60894;42.544;1.516;2022-10-22T05:26:14;2.20;;;0.90;;
72771;SDS011;60894;42.544;1.516;2022-10-22T05:28:42;2.78;;;0.88;;
72771;SDS011;60894;42.544;1.516;2022-10-22T05:31:10;5.47;;;1.05;;
72771;SDS011;60894;42.544;1.516;2022-10-22T05:33:38;3.47;;;1.20;;
72771;SDS011;60894;42.544;1.516;2022-10-22T05:36:06;3.97;;;1.00;;
72771;SDS011;60894;42.544;1.516;2022-10-22T05:38:35;4.00;;;0.93;;
72771;SDS011;60894;42.544;1.516;2022-10-22T05:41:03;5.35;;;1.10;;
72771;SDS011;60894;42.544;1.516;2022-10-22T05:43:32;3.10;;;0.98;;
72771;SDS011;60894;42.544;1.516;2022-10-22T05:46:00;2.55;;;0.88;;
72771;SDS011;60894;42.544;1.516;2022-10-22T05:48:28;2.93;;;1.00;;
72771;SDS011;60894;42.544;1.516;2022-10-22T05:50:55;3.08;;;0.90;;
72771;SDS011;60894;42.544;1.516;2022-10-22T05:53:22;1.80;;;0.80;;
72771;SDS011;60894;42.544;1.516;2022-10-22T05:55:49;3.03;;;1.00;;
72771;SDS011;60894;42.544;1.516;2022-10-22T05:58:15;3.58;;;1.40;;
72771;SDS011;60894;42.544;1.516;2022-10-22T06:00:44;2.30;;;1.00;;
72771;SDS011;60894;42.544;1.516;2022-10-22T06:03:11;3.80;;;1.30;;
72771;SDS011;60894;42.544;1.516;2022-10-22T06:05:37;3.67;;;1.52;;
72771;SDS011;60894;42.544;1.516;2022-10-22T06:08:04;3.38;;;1.30;;
72771;SDS011;60894;42.544;1.516;2022-10-22T06:10:31;3.97;;;1.20;;
72771;SDS011;60894;42.544;1.516;2022-10-22T06:12:58;2.90;;;1.10;;
72771;SDS011;60894;42.544;1.516;2022-10-22T06:15:27;5.72;;;1.15;;
72771;SDS011;60894;42.544;1.516;2022-10-22T06:17:55;2.60;;;0.80;;
72771;SDS011;60894;42.544;1.516;2022-10-22T06:20:22;2.95;;;0.70;;
72771;SDS011;60894;42.544;1.516;2022-10-22T06:22:49;2.92;;;1.20;;
72771;SDS011;60894;42.544;1.516;2022-10-22T06:25:16;4.70;;;2.13;;
72771;SDS011;60894;42.544;1.516;2022-10-22T06:27:47;4.88;;;1.67;;
72771;SDS011;60894;42.544;1.516;2022-10-22T06:30:14;2.63;;;1.20;;
72771;SDS011;60894;42.544;1.516;2022-10-22T06:32:41;4.65;;;1.52;;
72771;SDS011;60894;42.544;1.516;2022-10-22T06:35:10;4.05;;;1.20;;
72771;SDS011;60894;42.544;1.516;2022-10-22T06:37:37;2.03;;;0.80;;
72771;SDS011;60894;42.544;1.516;2022-10-22T06:40:04;2.38;;;0.93;;
72771;SDS011;60894;42.544;1.516;2022-10-22T06:42:31;3.67;;;1.13;;
72771;SDS011;60894;42.544;1.516;2022-10-22T06:44:58;3.63;;;1.38;;
72771;SDS011;60894;42.544;1.516;2022-10-22T06:47:25;7.75;;;2.00;;
72771;SDS011;60894;42.544;1.516;2022-10-22T06:49:52;4.57;;;1.30;;
72771;SDS011;60894;42.544;1.516;2022-10-22T06:52:20;4.45;;;1.50;;
72771;SDS011;60894;42.544;1.516;2022-10-22T06:54:47;3.38;;;1.20;;
72771;SDS011;60894;42.544;1.516;2022-10-22T06:57:14;5.10;;;1.50;;
72771;SDS011;60894;42.544;1.516;2022-10-22T06:59:41;5.80;;;1.42;;
72771;SDS011;60894;42.544;1.516;2022-10-22T07:02:08;3.03;;;1.50;;
72771;SDS011;60894;42.544;1.516;2022-10-22T07:04:35;4.10;;;1.55;;
72771;SDS011;60894;42.544;1.516;2022-10-22T07:07:01;6.05;;;1.40;;
72771;SDS011;60894;42.544;1.516;2022-10-22T07:09:30;5.82;;;1.70;;
72771;SDS011;60894;42.544;1.516;2022-10-22T07:11:57;9.18;;;2.47;;
72771;SDS011;60894;42.544;1.516;2022-10-22T07:14:23;9.10;;;2.40;;
72771;SDS011;60894;42.544;1.516;2022-10-22T07:16:50;7.00;;;2.47;;
72771;SDS011;60894;42.544;1.516;2022-10-22T07:19:17;7.07;;;1.90;;
72771;SDS011;60894;42.544;1.516;2022-10-22T07:21:44;6.63;;;2.50;;
72771;SDS011;60894;42.544;1.516;2022-10-22T07:24:11;5.35;;;1.70;;
72771;SDS011;60894;42.544;1.516;2022-10-22T07:26:39;3.63;;;1.80;;
72771;SDS011;60894;42.544;1.516;2022-10-22T07:29:06;4.57;;;1.98;;
72771;SDS011;60894;42.544;1.516;2022-10-22T07:31:34;5.93;;;1.85;;
72771;SDS011;60894;42.544;1.516;2022-10-22T07:34:04;5.70;;;1.70;;
72771;SDS011;60894;42.544;1.516;2022-10-22T07:36:31;5.18;;;1.80;;
72771;SDS011;60894;42.544;1.516;2022-10-22T07:38:58;6.17;;;1.73;;
72771;SDS011;60894;42.544;1.516;2022-10-22T07:41:25;4.82;;;1.50;;
72771;SDS011;60894;42.544;1.516;2022-10-22T07:43:55;5.43;;;1.90;;
72771;SDS011;60894;42.544;1.516;2022-10-22T07:46:23;5.95;;;1.88;;
72771;SDS011;60894;42.544;1.516;2022-10-22T07:48:50;6.18;;;1.85;;
72771;SDS011;60894;42.544;1.516;2022-10-22T07:51:17;7.63;;;2.23;;
72771;SDS011;60894;42.544;1.516;2022-10-22T07:53:44;7.78;;;3.10;;
72771;SDS011;60894;42.544;1.516;2022-10-22T07:56:11;6.95;;;2.45;;
72771;SDS011;60894;42.544;1.516;2022-10-22T07:58:38;7.05;;;2.40;;
72771;SDS011;60894;42.544;1.516;2022-10-22T08:01:07;5.95;;;2.40;;
72771;SDS011;60894;42.544;1.516;2022-10-22T08:03:34;7.53;;;2.30;;
72771;SDS011;60894;42.544;1.516;2022-10-22T08:06:01;6.03;;;2.60;;
72771;SDS011;60894;42.544;1.516;2022-10-22T08:08:28;7.07;;;2.33;;
72771;SDS011;60894;42.544;1.516;2022-10-22T08:10:56;6.78;;;2.35;;
72771;SDS011;60894;42.544;1.516;2022-10-22T08:13:24;4.43;;;1.70;;
72771;SDS011;60894;42.544;1.516;2022-10-22T08:15:51;4.53;;;2.00;;
72771;SDS011;60894;42.544;1.516;2022-10-22T08:18:20;6.28;;;2.00;;
72771;SDS011;60894;42.544;1.516;2022-10-22T08:20:47;5.57;;;2.00;;
72771;SDS011;60894;42.544;1.516;2022-10-22T08:23:13;4.72;;;2.10;;
72771;SDS011;60894;42.544;1.516;2022-10-22T08:25:40;7.05;;;2.05;;
72771;SDS011;60894;42.544;1.516;2022-10-22T08:28:07;5.03;;;2.00;;
72771;SDS011;60894;42.544;1.516;2022-10-22T08:30:35;11.65;;;2.28;;
72771;SDS011;60894;42.544;1.516;2022-10-22T08:33:04;6.45;;;2.15;;
72771;SDS011;60894;42.544;1.516;2022-10-22T08:35:33;6.15;;;2.25;;
72771;SDS011;60894;42.544;1.516;2022-10-22T08:38:00;7.05;;;4.13;;
72771;SDS011;60894;42.544;1.516;2022-10-22T08:40:28;8.70;;;2.20;;
72771;SDS011;60894;42.544;1.516;2022-10-22T08:43:06;5.85;;;2.00;;
72771;SDS011;60894;42.544;1.516;2022-10-22T08:45:41;5.50;;;2.40;;
72771;SDS011;60894;42.544;1.516;2022-10-22T08:48:21;9.88;;;2.75;;
72771;SDS011;60894;42.544;1.516;2022-10-22T08:50:59;5.28;;;1.90;;
72771;SDS011;60894;42.544;1.516;2022-10-22T08:53:28;6.50;;;2.33;;
72771;SDS011;60894;42.544;1.516;2022-10-22T08:56:02;4.38;;;1.80;;
72771;SDS011;60894;42.544;1.516;2022-10-22T08:58:31;5.68;;;2.03;;
72771;SDS011;60894;42.544;1.516;2022-10-22T09:01:04;6.95;;;1.90;;
72771;SDS011;60894;42.544;1.516;2022-10-22T09:03:40;5.03;;;2.00;;
72771;SDS011;60894;42.544;1.516;2022-10-22T09:06:14;7.33;;;2.07;;
72771;SDS011;60894;42.544;1.516;2022-10-22T09:08:43;5.20;;;1.88;;
72771;SDS011;60894;42.544;1.516;2022-10-22T09:11:18;5.97;;;2.13;;
72771;SDS011;60894;42.544;1.516;2022-10-22T09:13:50;8.82;;;2.65;;
72771;SDS011;60894;42.544;1.516;2022-10-22T09:16:20;5.05;;;2.00;;
72771;SDS011;60894;42.544;1.516;2022-10-22T09:18:53;6.00;;;1.90;;
72771;SDS011;60894;42.544;1.516;2022-10-22T09:21:35;2.30;;;1.20;;
72771;SDS011;60894;42.544;1.516;2022-10-22T09:24:10;4.50;;;1.70;;
72771;SDS011;60894;42.544;1.516;2022-10-22T09:26:40;5.07;;;1.40;;
72771;SDS011;60894;42.544;1.516;2022-10-22T09:29:08;3.63;;;1.50;;
72771;SDS011;60894;42.544;1.516;2022-10-22T09:31:42;4.77;;;1.67;;
72771;SDS011;60894;42.544;1.516;2022-10-22T09:34:12;4.53;;;1.70;;
72771;SDS011;60894;42.544;1.516;2022-10-22T09:36:41;4.63;;;1.52;;
72771;SDS011;60894;42.544;1.516;2022-10-22T09:39:20;7.70;;;1.65;;
72771;SDS011;60894;42.544;1.516;2022-10-22T09:41:49;5.50;;;1.70;;
72771;SDS011;60894;42.544;1.516;2022-10-22T09:44:16;5.87;;;1.70;;
72771;SDS011;60894;42.544;1.516;2022-10-22T09:46:43;4.10;;;1.40;;
72771;SDS011;60894;42.544;1.516;2022-10-22T09:49:11;4.07;;;1.50;;
72771;SDS011;60894;42.544;1.516;2022-10-22T09:51:50;7.00;;;1.50;;
72771;SDS011;60894;42.544;1.516;2022-10-22T09:54:19;2.90;;;1.20;;
72771;SDS011;60894;42.544;1.516;2022-10-22T09:56:55;5.20;;;1.00;;
72771;SDS011;60894;42.544;1.516;2022-10-22T09:59:26;4.10;;;0.82;;
72771;SDS011;60894;42.544;1.516;2022-10-22T10:01:55;1.98;;;0.50;;
72771;SDS011;60894;42.544;1.516;2022-10-22T10:04:27;1.48;;;0.60;;
72771;SDS011;60894;42.544;1.516;2022-10-22T10:07:00;1.13;;;0.70;;
72771;SDS011;60894;42.544;1.516;2022-10-22T10:09:28;3.00;;;1.00;;
72771;SDS011;60894;42.544;1.516;2022-10-22T10:12:02;1.88;;;0.93;;
72771;SDS011;60894;42.544;1.516;2022-10-22T10:14:39;1.17;;;0.60;;
72771;SDS011;60894;42.544;1.516;2022-10-22T10:17:14;2.40;;;0.90;;
72771;SDS011;60894;42.544;1.516;2022-10-22T10:19:53;1.05;;;0.60;;
72771;SDS011;60894;42.544;1.516;2022-10-22T10:22:32;1.47;;;0.40;;
72771;SDS011;60894;42.544;1.516;2022-10-22T10:28:01;2.50;;;0.50;;
72771;SDS011;60894;42.544;1.516;2022-10-22T10:30:38;1.42;;;0.63;;
72771;SDS011;60894;42.544;1.516;2022-10-22T10:33:14;0.70;;;0.50;;
72771;SDS011;60894;42.544;1.516;2022-10-22T10:35:50;5.53;;;0.70;;
72771;SDS011;60894;42.544;1.516;2022-10-22T10:38:29;2.72;;;0.60;;
72771;SDS011;60894;42.544;1.516;2022-10-22T10:41:06;1.73;;;0.70;;
72771;SDS011;60894;42.544;1.516;2022-10-22T10:43:46;2.65;;;0.50;;
72771;SDS011;60894;42.544;1.516;2022-10-22T10:46:24;3.38;;;0.73;;
72771;SDS011;60894;42.544;1.516;2022-10-22T10:48:59;3.30;;;0.70;;
72771;SDS011;60894;42.544;1.516;2022-10-22T10:51:34;1.45;;;0.57;;
72771;SDS011;60894;42.544;1.516;2022-10-22T10:54:23;2.05;;;0.80;;
72771;SDS011;60894;42.544;1.516;2022-10-22T10:56:56;1.05;;;0.65;;
72771;SDS011;60894;42.544;1.516;2022-10-22T10:59:29;1.17;;;0.60;;
72771;SDS011;60894;42.544;1.516;2022-10-22T11:02:23;0.83;;;0.40;;
72771;SDS011;60894;42.544;1.516;2022-10-22T11:05:11;2.30;;;0.57;;
72771;SDS011;60894;42.544;1.516;2022-10-22T11:07:50;1.48;;;0.60;;
72771;SDS011;60894;42.544;1.516;2022-10-22T11:10:23;2.10;;;0.60;;
72771;SDS011;60894;42.544;1.516;2022-10-22T11:12:55;1.98;;;0.70;;
72771;SDS011;60894;42.544;1.516;2022-10-22T11:15:27;1.40;;;0.60;;
72771;SDS011;60894;42.544;1.516;2022-10-22T11:17:58;0.93;;;0.60;;
72771;SDS011;60894;42.544;1.516;2022-10-22T11:20:34;1.70;;;0.68;;
72771;SDS011;60894;42.544;1.516;2022-10-22T11:23:10;1.40;;;0.57;;
72771;SDS011;60894;42.544;1.516;2022-10-22T11:25:44;2.40;;;1.02;;
72771;SDS011;60894;42.544;1.516;2022-10-22T11:28:16;1.70;;;0.73;;
72771;SDS011;60894;42.544;1.516;2022-10-22T11:30:47;1.65;;;0.60;;
72771;SDS011;60894;42.544;1.516;2022-10-22T11:33:20;2.35;;;0.60;;
72771;SDS011;60894;42.544;1.516;2022-10-22T11:35:50;0.77;;;0.60;;
72771;SDS011;60894;42.544;1.516;2022-10-22T11:38:19;1.00;;;0.68;;
72771;SDS011;60894;42.544;1.516;2022-10-22T11:40:53;1.23;;;0.60;;
72771;SDS011;60894;42.544;1.516;2022-10-22T11:43:26;1.58;;;0.50;;
72771;SDS011;60894;42.544;1.516;2022-10-22T11:46:00;1.85;;;0.50;;
72771;SDS011;60894;42.544;1.516;2022-10-22T11:48:35;1.30;;;0.70;;
72771;SDS011;60894;42.544;1.516;2022-10-22T11:51:03;4.68;;;1.30;;
72771;SDS011;60894;42.544;1.516;2022-10-22T11:54:01;1.73;;;0.70;;
72771;SDS011;60894;42.544;1.516;2022-10-22T11:56:49;1.88;;;0.70;;
72771;SDS011;60894;42.544;1.516;2022-10-22T11:59:30;2.45;;;1.02;;
72771;SDS011;60894;42.544;1.516;2022-10-22T12:02:19;1.13;;;0.82;;
72771;SDS011;60894;42.544;1.516;2022-10-22T12:08:16;0.40;;;0.40;;
72771;SDS011;60894;42.544;1.516;2022-10-22T12:10:54;3.88;;;1.20;;
72771;SDS011;60894;42.544;1.516;2022-10-22T12:13:27;1.20;;;0.50;;
72771;SDS011;60894;42.544;1.516;2022-10-22T12:15:57;2.45;;;0.50;;
72771;SDS011;60894;42.544;1.516;2022-10-22T12:18:28;4.28;;;1.00;;
72771;SDS011;60894;42.544;1.516;2022-10-22T12:21:00;1.43;;;0.60;;
72771;SDS011;60894;42.544;1.516;2022-10-22T12:23:29;1.92;;;0.60;;
72771;SDS011;60894;42.544;1.516;2022-10-22T12:25:57;2.75;;;0.90;;
72771;SDS011;60894;42.544;1.516;2022-10-22T12:28:24;2.65;;;0.60;;
72771;SDS011;60894;42.544;1.516;2022-10-22T12:30:52;0.98;;;0.32;;
72771;SDS011;60894;42.544;1.516;2022-10-22T12:33:20;1.10;;;0.60;;
72771;SDS011;60894;42.544;1.516;2022-10-22T12:35:48;0.85;;;0.50;;
72771;SDS011;60894;42.544;1.516;2022-10-22T12:38:18;3.90;;;1.65;;
72771;SDS011;60894;42.544;1.516;2022-10-22T12:40:47;2.40;;;0.85;;
72771;SDS011;60894;42.544;1.516;2022-10-22T12:43:16;1.50;;;0.50;;
72771;SDS011;60894;42.544;1.516;2022-10-22T12:45:44;3.53;;;1.30;;
72771;SDS011;60894;42.544;1.516;2022-10-22T12:48:15;1.35;;;0.73;;
72771;SDS011;60894;42.544;1.516;2022-10-22T12:50:46;0.73;;;0.30;;
72771;SDS011;60894;42.544;1.516;2022-10-22T12:53:16;1.52;;;0.45;;
72771;SDS011;60894;42.544;1.516;2022-10-22T12:55:46;2.20;;;0.40;;
72771;SDS011;60894;42.544;1.516;2022-10-22T12:58:16;0.40;;;0.40;;
72771;SDS011;60894;42.544;1.516;2022-10-22T13:00:45;1.40;;;0.43;;
72771;SDS011;60894;42.544;1.516;2022-10-22T13:03:23;1.95;;;0.60;;
72771;SDS011;60894;42.544;1.516;2022-10-22T13:05:52;0.70;;;0.40;;
72771;SDS011;60894;42.544;1.516;2022-10-22T13:08:20;0.73;;;0.50;;
72771;SDS011;60894;42.544;1.516;2022-10-22T13:10:49;1.40;;;0.33;;
72771;SDS011;60894;42.544;1.516;2022-10-22T13:13:30;0.68;;;0.50;;
72771;SDS011;60894;42.544;1.516;2022-10-22T13:16:14;1.00;;;0.40;;
72771;SDS011;60894;42.544;1.516;2022-10-22T13:18:44;1.05;;;0.30;;
72771;SDS011;60894;42.544;1.516;2022-10-22T13:21:25;1.67;;;0.50;;
72771;SDS011;60894;42.544;1.516;2022-10-22T13:23:55;1.70;;;0.40;;
72771;SDS011;60894;42.544;1.516;2022-10-22T13:26:24;0.95;;;0.45;;
72771;SDS011;60894;42.544;1.516;2022-10-22T13:28:57;1.52;;;0.52;;
72771;SDS011;60894;42.544;1.516;2022-10-22T13:31:27;0.40;;;0.32;;
72771;SDS011;60894;42.544;1.516;2022-10-22T13:33:59;1.98;;;0.60;;
72771;SDS011;60894;42.544;1.516;2022-10-22T13:36:30;1.77;;;0.47;;
72771;SDS011;60894;42.544;1.516;2022-10-22T13:38:58;0.60;;;0.32;;
72771;SDS011;60894;42.544;1.516;2022-10-22T13:41:25;0.45;;;0.30;;
72771;SDS011;60894;42.544;1.516;2022-10-22T13:43:55;0.40;;;0.30;;
72771;SDS011;60894;42.544;1.516;2022-10-22T13:46:22;0.80;;;0.30;;
72771;SDS011;60894;42.544;1.516;2022-10-22T13:48:51;1.50;;;0.30;;
72771;SDS011;60894;42.544;1.516;2022-10-22T13:51:21;0.90;;;0.30;;
72771;SDS011;60894;42.544;1.516;2022-10-22T13:53:51;1.48;;;0.65;;
72771;SDS011;60894;42.544;1.516;2022-10-22T13:56:19;1.08;;;0.50;;
72771;SDS011;60894;42.544;1.516;2022-10-22T13:58:48;1.17;;;0.40;;
72771;SDS011;60894;42.544;1.516;2022-10-22T14:01:17;3.37;;;1.30;;
72771;SDS011;60894;42.544;1.516;2022-10-22T14:03:47;3.78;;;0.88;;
72771;SDS011;60894;42.544;1.516;2022-10-22T14:06:15;0.45;;;0.30;;
72771;SDS011;60894;42.544;1.516;2022-10-22T14:08:46;1.17;;;0.38;;
72771;SDS011;60894;42.544;1.516;2022-10-22T14:11:15;1.95;;;0.40;;
72771;SDS011;60894;42.544;1.516;2022-10-22T14:13:43;2.43;;;0.60;;
72771;SDS011;60894;42.544;1.516;2022-10-22T14:16:12;0.65;;;0.30;;
72771;SDS011;60894;42.544;1.516;2022-10-22T14:18:45;0.95;;;0.40;;
72771;SDS011;60894;42.544;1.516;2022-10-22T14:21:13;2.30;;;0.63;;
72771;SDS011;60894;42.544;1.516;2022-10-22T14:23:41;2.63;;;0.80;;
72771;SDS011;60894;42.544;1.516;2022-10-22T14:26:13;1.73;;;0.30;;
72771;SDS011;60894;42.544;1.516;2022-10-22T14:28:46;0.68;;;0.30;;
72771;SDS011;60894;42.544;1.516;2022-10-22T14:31:13;2.75;;;0.40;;
72771;SDS011;60894;42.544;1.516;2022-10-22T14:33:40;0.82;;;0.40;;
72771;SDS011;60894;42.544;1.516;2022-10-22T14:36:08;1.35;;;0.50;;
72771;SDS011;60894;42.544;1.516;2022-10-22T14:38:37;1.10;;;0.60;;
72771;SDS011;60894;42.544;1.516;2022-10-22T14:41:07;0.70;;;0.40;;
72771;SDS011;60894;42.544;1.516;2022-10-22T14:43:43;0.30;;;0.30;;
72771;SDS011;60894;42.544;1.516;2022-10-22T14:46:11;1.08;;;0.32;;
72771;SDS011;60894;42.544;1.516;2022-10-22T14:48:39;2.35;;;0.85;;
72771;SDS011;60894;42.544;1.516;2022-10-22T14:51:06;1.20;;;0.50;;
72771;SDS011;60894;42.544;1.516;2022-10-22T14:53:37;0.77;;;0.50;;
72771;SDS011;60894;42.544;1.516;2022-10-22T14:56:04;1.45;;;0.77;;
72771;SDS011;60894;42.544;1.516;2022-10-22T14:58:32;1.08;;;0.60;;
72771;SDS011;60894;42.544;1.516;2022-10-22T15:01:00;3.05;;;1.50;;
72771;SDS011;60894;42.544;1.516;2022-10-22T15:03:27;1.20;;;0.60;;
72771;SDS011;60894;42.544;1.516;2022-10-22T15:05:55;1.10;;;0.63;;
72771;SDS011;60894;42.544;1.516;2022-10-22T15:08:25;1.45;;;0.60;;
72771;SDS011;60894;42.544;1.516;2022-10-22T15:10:56;0.98;;;0.57;;
72771;SDS011;60894;42.544;1.516;2022-10-22T15:13:24;1.70;;;0.60;;
72771;SDS011;60894;42.544;1.516;2022-10-22T15:15:53;1.37;;;0.40;;
72771;SDS011;60894;42.544;1.516;2022-10-22T15:18:20;0.88;;;0.30;;